Time;durP1;ratioP1;P1;durP2;ratioP2;P2;SDS_P1;SDS_P2;PMS_P1;PMS_P2;Temp;Humidity;BMP_temperature;BMP_pressure;BME280_temperature;BME280_humidity;BME280_pressure;Samples;Min_cycle;Max_cycle;Signal;HPM_P1;HPM_P2
2021/05/02 00:00:28;;;;;;;48.40;36.73;;;8.70;99.90;;;;;;4981288;28;20465;-64
2021/05/02 00:02:55;;;;;;;52.70;38.90;;;8.70;99.90;;;;;;4980028;28;20489;-65
2021/05/02 00:05:24;;;;;;;52.07;39.67;;;8.70;99.90;;;;;;4980194;28;20463;-64
2021/05/02 00:07:51;;;;;;;48.80;39.43;;;8.70;99.90;;;;;;4980925;28;20458;-65
2021/05/02 00:10:20;;;;;;;50.97;39.20;;;8.70;99.90;;;;;;4980206;28;20462;-64
2021/05/02 00:12:46;;;;;;;50.83;39.80;;;8.70;99.90;;;;;;4980045;28;20454;-64
2021/05/02 00:15:15;;;;;;;53.57;39.00;;;8.60;99.90;;;;;;4980165;28;20454;-64
2021/05/02 00:17:43;;;;;;;50.80;38.90;;;8.60;99.90;;;;;;4981135;28;20796;-64
2021/05/02 00:20:12;;;;;;;52.50;39.93;;;8.70;99.90;;;;;;4980921;28;20459;-64
2021/05/02 00:22:43;;;;;;;47.37;37.70;;;8.70;99.90;;;;;;4979156;28;20525;-63
2021/05/02 00:25:12;;;;;;;46.07;35.90;;;8.70;99.90;;;;;;4980964;28;20553;-64
2021/05/02 00:27:39;;;;;;;50.67;39.57;;;8.60;99.90;;;;;;4981287;28;20451;-64
2021/05/02 00:30:06;;;;;;;46.00;35.33;;;8.60;99.90;;;;;;4980237;28;20458;-64
2021/05/02 00:32:34;;;;;;;40.83;34.53;;;8.60;99.90;;;;;;4981530;28;20463;-64
2021/05/02 00:35:01;;;;;;;41.57;34.13;;;8.50;99.90;;;;;;4980768;28;20461;-63
2021/05/02 00:37:28;;;;;;;39.40;32.33;;;8.40;99.90;;;;;;4979657;28;20459;-64
2021/05/02 00:39:56;;;;;;;39.87;34.23;;;8.30;99.90;;;;;;4976592;28;20465;-63
2021/05/02 00:42:25;;;;;;;34.90;31.13;;;8.30;99.90;;;;;;4976421;28;20813;-63
2021/05/02 00:44:58;;;;;;;38.80;33.20;;;8.30;99.90;;;;;;4976659;28;20474;-63
2021/05/02 00:47:31;;;;;;;37.23;32.43;;;8.30;99.90;;;;;;4976319;28;20439;-63
2021/05/02 00:50:04;;;;;;;41.87;33.97;;;8.10;99.90;;;;;;4976815;28;20439;-63
2021/05/02 00:52:35;;;;;;;36.80;31.80;;;8.10;99.90;;;;;;4975938;28;20439;-64
2021/05/02 00:55:06;;;;;;;36.40;32.50;;;8.10;99.90;;;;;;4976263;28;20436;-65
2021/05/02 00:57:44;;;;;;;37.60;31.63;;;8.10;99.90;;;;;;4976701;28;20447;-64
2021/05/02 01:00:11;;;;;;;39.77;32.60;;;8.10;99.90;;;;;;4977918;28;20435;-64
2021/05/02 01:02:38;;;;;;;39.23;34.97;;;8.10;99.90;;;;;;4980340;28;20482;-65
2021/05/02 01:05:06;;;;;;;39.83;35.30;;;8.10;99.90;;;;;;4990301;28;20463;-66
2021/05/02 01:07:37;;;;;;;39.03;34.57;;;8.10;99.90;;;;;;4990116;28;20465;-66
2021/05/02 01:10:09;;;;;;;43.30;35.67;;;8.10;99.90;;;;;;4987325;28;20478;-65
2021/05/02 01:12:41;;;;;;;48.87;36.07;;;8.10;99.90;;;;;;4977887;28;20451;-65
2021/05/02 01:15:11;;;;;;;50.13;36.13;;;8.10;99.90;;;;;;4978056;28;20439;-64
2021/05/02 01:17:41;;;;;;;40.50;34.90;;;8.10;99.90;;;;;;4977894;28;20836;-65
2021/05/02 01:20:09;;;;;;;44.03;35.30;;;8.10;99.90;;;;;;4977158;28;20454;-64
2021/05/02 01:22:38;;;;;;;39.77;35.37;;;8.10;99.90;;;;;;4977682;28;20558;-66
2021/05/02 01:25:07;;;;;;;41.47;34.90;;;8.00;99.90;;;;;;4977190;28;20593;-66
2021/05/02 01:27:34;;;;;;;44.30;35.73;;;8.00;99.90;;;;;;4976726;28;20458;-66
2021/05/02 01:30:03;;;;;;;41.27;34.80;;;8.00;99.90;;;;;;4976092;28;20535;-64
2021/05/02 01:32:30;;;;;;;39.47;34.77;;;8.00;99.90;;;;;;4975667;28;20458;-65
2021/05/02 01:34:56;;;;;;;42.27;36.40;;;8.00;99.90;;;;;;4975442;28;20471;-65
2021/05/02 01:37:23;;;;;;;39.43;34.87;;;8.00;99.90;;;;;;4975276;28;20458;-64
2021/05/02 01:39:50;;;;;;;39.53;35.10;;;7.90;99.90;;;;;;4975387;28;20469;-64
2021/05/02 01:42:17;;;;;;;38.33;33.73;;;7.90;99.90;;;;;;4975316;28;20459;-64
2021/05/02 01:44:43;;;;;;;41.93;35.07;;;7.80;99.90;;;;;;4975040;28;20482;-63
2021/05/02 01:47:11;;;;;;;39.13;32.77;;;7.80;99.90;;;;;;4975042;28;20458;-63
2021/05/02 01:49:43;;;;;;;40.43;34.10;;;7.70;99.90;;;;;;4975134;28;20458;-64
2021/05/02 01:52:09;;;;;;;43.07;35.20;;;7.70;99.90;;;;;;4975028;28;20522;-63
2021/05/02 01:54:36;;;;;;;44.87;36.20;;;7.80;99.90;;;;;;4974831;28;20490;-63
2021/05/02 01:57:04;;;;;;;43.23;35.33;;;7.80;99.90;;;;;;4974904;28;20505;-63
2021/05/02 01:59:31;;;;;;;42.83;35.13;;;7.80;99.90;;;;;;4974796;28;20459;-63
2021/05/02 02:01:57;;;;;;;42.63;36.13;;;7.80;99.90;;;;;;4974954;28;20489;-64
2021/05/02 02:04:29;;;;;;;41.07;34.57;;;7.90;99.90;;;;;;4974893;28;20493;-63
2021/05/02 02:06:56;;;;;;;43.80;34.80;;;7.80;99.90;;;;;;4974812;28;20555;-65
2021/05/02 02:09:24;;;;;;;47.07;38.67;;;7.90;99.90;;;;;;4974891;28;20455;-64
2021/05/02 02:11:52;;;;;;;45.80;37.33;;;7.90;99.90;;;;;;4974724;28;20517;-63
2021/05/02 02:14:19;;;;;;;43.33;36.70;;;7.90;99.90;;;;;;4974478;28;20833;-63
2021/05/02 02:16:46;;;;;;;48.70;38.23;;;7.90;99.90;;;;;;4974642;28;20455;-63
2021/05/02 02:19:12;;;;;;;46.17;37.20;;;7.90;99.90;;;;;;4974501;28;20465;-63
2021/05/02 02:21:42;;;;;;;44.47;37.50;;;7.90;99.90;;;;;;4974421;28;20462;-64
2021/05/02 02:24:12;;;;;;;48.80;39.30;;;7.90;99.90;;;;;;4974426;28;20496;-64
2021/05/02 02:26:49;;;;;;;47.83;38.90;;;7.90;99.90;;;;;;4974633;28;20871;-63
2021/05/02 02:29:16;;;;;;;48.37;39.00;;;7.90;99.90;;;;;;4974400;28;20442;-63
2021/05/02 02:31:46;;;;;;;48.13;39.50;;;7.90;99.90;;;;;;4974506;28;20454;-63
2021/05/02 02:34:14;;;;;;;52.40;40.13;;;7.90;99.90;;;;;;4974460;28;20908;-63
2021/05/02 02:36:41;;;;;;;51.37;40.93;;;7.90;99.90;;;;;;4974336;28;20450;-64
2021/05/02 02:39:07;;;;;;;49.60;39.80;;;7.80;99.90;;;;;;4974082;28;20461;-63
2021/05/02 02:41:38;;;;;;;55.60;41.40;;;7.80;99.90;;;;;;4973976;28;21026;-63
2021/05/02 02:44:08;;;;;;;53.47;41.23;;;7.80;99.90;;;;;;4974203;28;20521;-64
2021/05/02 02:46:38;;;;;;;53.47;40.57;;;7.70;99.90;;;;;;4973927;28;20479;-64
2021/05/02 02:49:06;;;;;;;52.63;41.60;;;7.70;99.90;;;;;;4974153;28;20455;-63
2021/05/02 02:51:34;;;;;;;54.00;42.87;;;7.70;99.90;;;;;;4974272;28;20458;-63
2021/05/02 02:54:02;;;;;;;59.60;44.50;;;7.70;99.90;;;;;;4974330;28;20478;-64
2021/05/02 02:56:30;;;;;;;48.93;40.50;;;7.70;99.90;;;;;;4974264;28;20454;-63
2021/05/02 02:58:58;;;;;;;49.90;40.13;;;7.70;99.90;;;;;;4974117;28;20824;-64
2021/05/02 03:01:25;;;;;;;54.10;41.77;;;7.60;99.90;;;;;;4973999;28;20459;-64
2021/05/02 03:03:54;;;;;;;49.73;39.77;;;7.60;99.90;;;;;;4973782;28;20487;-64
2021/05/02 03:06:24;;;;;;;58.70;43.67;;;7.70;99.90;;;;;;4974120;28;20837;-64
2021/05/02 03:08:54;;;;;;;56.50;42.07;;;7.70;99.90;;;;;;4973929;28;20439;-64
2021/05/02 03:11:20;;;;;;;54.73;42.93;;;7.80;99.90;;;;;;4973993;28;20514;-63
2021/05/02 03:13:48;;;;;;;51.63;42.87;;;7.80;99.90;;;;;;4973642;28;21059;-64
2021/05/02 03:16:18;;;;;;;50.80;42.00;;;7.70;99.90;;;;;;4973628;28;20446;-64
2021/05/02 03:18:51;;;;;;;51.47;42.17;;;7.80;99.90;;;;;;4973966;28;20462;-64
2021/05/02 03:21:22;;;;;;;48.93;41.30;;;7.80;99.90;;;;;;4974555;28;20932;-64
2021/05/02 03:23:51;;;;;;;53.80;40.67;;;7.80;99.90;;;;;;4977578;28;20474;-64
2021/05/02 03:26:22;;;;;;;48.73;41.03;;;7.80;99.90;;;;;;4977732;28;20482;-64
2021/05/02 03:28:52;;;;;;;48.60;40.00;;;7.90;99.90;;;;;;4977559;28;20439;-64
2021/05/02 03:31:23;;;;;;;46.70;40.03;;;7.80;99.90;;;;;;4977461;28;20442;-64
2021/05/02 03:33:57;;;;;;;48.47;40.60;;;7.90;99.90;;;;;;4977572;28;20485;-65
2021/05/02 03:36:28;;;;;;;47.30;40.87;;;7.90;99.90;;;;;;4977392;28;20442;-64
2021/05/02 03:38:57;;;;;;;49.60;40.37;;;7.90;99.90;;;;;;4977746;28;20446;-64
2021/05/02 03:41:23;;;;;;;50.50;42.80;;;7.90;99.90;;;;;;4977318;28;20454;-63
2021/05/02 03:43:49;;;;;;;45.17;39.80;;;7.90;99.90;;;;;;4977120;28;20478;-63
2021/05/02 03:46:25;;;;;;;52.60;43.13;;;8.00;99.90;;;;;;4976809;28;20490;-65
2021/05/02 03:48:57;;;;;;;46.60;40.47;;;8.00;99.90;;;;;;4977150;28;20529;-63
2021/05/02 03:51:25;;;;;;;48.03;40.07;;;8.00;99.90;;;;;;4977010;28;20477;-64
2021/05/02 03:53:51;;;;;;;45.23;40.43;;;8.00;99.90;;;;;;4977158;28;20481;-64
2021/05/02 03:56:38;;;;;;;48.30;41.23;;;8.00;99.90;;;;;;4976986;28;20454;-64
2021/05/02 03:59:09;;;;;;;47.37;41.57;;;8.10;99.90;;;;;;4976810;28;20446;-64
2021/05/02 04:01:36;;;;;;;50.03;41.30;;;8.00;99.90;;;;;;4977111;28;20467;-64
2021/05/02 04:04:02;;;;;;;46.63;39.83;;;8.00;99.90;;;;;;4976657;28;20490;-64
2021/05/02 04:06:29;;;;;;;45.53;40.57;;;8.00;99.90;;;;;;4976564;23;21087;-63
2021/05/02 04:08:55;;;;;;;50.67;42.80;;;8.00;99.90;;;;;;4958201;29;20460;-64
2021/05/02 04:11:21;;;;;;;45.83;40.80;;;8.00;99.90;;;;;;4957825;29;20443;-62
2021/05/02 04:13:48;;;;;;;47.80;39.90;;;8.10;99.90;;;;;;4958144;29;20451;-64
2021/05/02 04:16:15;;;;;;;49.20;42.77;;;8.10;99.90;;;;;;4958272;29;20495;-63
2021/05/02 04:18:42;;;;;;;46.83;40.27;;;8.10;99.90;;;;;;4958258;29;20451;-63
2021/05/02 04:21:08;;;;;;;46.77;41.63;;;8.20;99.90;;;;;;4958405;29;20455;-63
2021/05/02 04:23:35;;;;;;;47.80;40.40;;;8.20;99.90;;;;;;4958635;29;20451;-63
2021/05/02 04:26:01;;;;;;;47.80;42.53;;;8.20;99.90;;;;;;4958133;29;20487;-62
2021/05/02 04:28:27;;;;;;;44.27;39.30;;;8.20;99.90;;;;;;4958508;29;20443;-62
2021/05/02 04:30:54;;;;;;;45.70;40.73;;;8.30;99.90;;;;;;4957752;29;20456;-63
2021/05/02 04:33:21;;;;;;;48.13;42.77;;;8.30;99.90;;;;;;4956565;28;20463;-64
2021/05/02 04:35:47;;;;;;;48.90;40.77;;;8.20;99.90;;;;;;4957257;29;20475;-63
2021/05/02 04:38:13;;;;;;;47.47;42.30;;;8.20;99.90;;;;;;4957736;29;20454;-63
2021/05/02 04:40:39;;;;;;;46.57;41.47;;;8.20;99.90;;;;;;4957677;29;20467;-63
2021/05/02 04:43:06;;;;;;;48.50;41.00;;;8.20;99.90;;;;;;4957262;29;20951;-63
2021/05/02 04:45:32;;;;;;;47.83;41.83;;;8.20;99.90;;;;;;4957319;29;20494;-63
2021/05/02 04:47:59;;;;;;;49.70;40.93;;;8.20;99.90;;;;;;4957534;29;20588;-62
2021/05/02 04:50:25;;;;;;;50.00;41.80;;;8.10;99.90;;;;;;4957538;29;20482;-63
2021/05/02 04:52:51;;;;;;;48.33;41.90;;;8.10;99.90;;;;;;4957739;29;20460;-64
2021/05/02 04:55:17;;;;;;;43.03;38.33;;;8.20;99.90;;;;;;4957320;29;20224;-64
2021/05/02 04:57:44;;;;;;;45.00;40.20;;;8.20;99.90;;;;;;4957398;29;20467;-65
2021/05/02 05:00:11;;;;;;;48.80;39.40;;;8.30;99.90;;;;;;4957329;29;20818;-64
2021/05/02 05:02:37;;;;;;;44.03;39.23;;;8.30;99.90;;;;;;4957457;29;20460;-65
2021/05/02 05:05:06;;;;;;;44.00;39.27;;;8.40;99.90;;;;;;4956956;29;20507;-66
2021/05/02 05:07:32;;;;;;;47.17;40.97;;;8.30;99.90;;;;;;4957450;29;20861;-64
2021/05/02 05:09:58;;;;;;;44.73;40.20;;;8.30;99.90;;;;;;4957218;29;20455;-64
2021/05/02 05:12:25;;;;;;;42.43;38.03;;;8.40;99.90;;;;;;4957604;29;20801;-65
2021/05/02 05:14:51;;;;;;;45.40;40.50;;;8.40;99.90;;;;;;4957490;29;20534;-66
2021/05/02 05:17:17;;;;;;;44.67;39.20;;;8.40;99.90;;;;;;4957282;29;20453;-65
2021/05/02 05:19:44;;;;;;;42.73;38.23;;;8.40;99.90;;;;;;4957328;29;20455;-66
2021/05/02 05:22:11;;;;;;;41.80;37.30;;;8.50;99.90;;;;;;4957546;29;20460;-64
2021/05/02 05:24:37;;;;;;;44.03;39.23;;;8.50;99.90;;;;;;4957026;29;20814;-66
2021/05/02 05:27:04;;;;;;;46.27;39.13;;;8.60;99.90;;;;;;4957878;29;20486;-66
2021/05/02 05:29:32;;;;;;;42.10;37.70;;;8.50;99.90;;;;;;4956955;29;20499;-66
2021/05/02 05:31:58;;;;;;;43.57;39.10;;;8.60;99.90;;;;;;4956905;29;20602;-65
2021/05/02 05:34:24;;;;;;;42.77;38.33;;;8.70;99.90;;;;;;4956530;29;20825;-65
2021/05/02 05:36:51;;;;;;;41.87;37.53;;;8.70;99.90;;;;;;4956751;29;20487;-66
2021/05/02 05:39:18;;;;;;;40.47;36.40;;;8.60;99.90;;;;;;4956550;29;20826;-66
2021/05/02 05:41:44;;;;;;;36.87;32.87;;;8.70;99.90;;;;;;4956799;29;20463;-65
2021/05/02 05:44:10;;;;;;;37.00;33.17;;;8.80;99.90;;;;;;4956618;28;20482;-66
2021/05/02 05:46:36;;;;;;;43.13;34.53;;;8.90;99.90;;;;;;4956085;29;20846;-65
2021/05/02 05:49:03;;;;;;;37.40;33.57;;;8.90;99.90;;;;;;4956614;29;20456;-65
2021/05/02 05:51:29;;;;;;;41.90;37.43;;;9.00;99.90;;;;;;4956595;29;20538;-66
2021/05/02 05:53:55;;;;;;;40.70;36.33;;;9.00;99.90;;;;;;4956421;29;20552;-66
2021/05/02 05:56:22;;;;;;;37.23;33.63;;;9.10;99.90;;;;;;4956388;29;20478;-65
2021/05/02 05:58:48;;;;;;;39.07;35.37;;;9.20;99.90;;;;;;4956200;29;20530;-65
2021/05/02 06:01:14;;;;;;;38.30;34.47;;;9.20;99.90;;;;;;4956941;29;20455;-65
2021/05/02 06:03:41;;;;;;;38.97;35.07;;;9.20;99.90;;;;;;4956212;29;20984;-65
2021/05/02 06:06:08;;;;;;;36.87;33.27;;;9.30;99.90;;;;;;4955984;29;20711;-65
2021/05/02 06:08:34;;;;;;;40.80;36.50;;;9.30;99.90;;;;;;4956193;29;20973;-66
2021/05/02 06:11:00;;;;;;;40.77;36.67;;;9.30;99.90;;;;;;4956157;29;20491;-66
2021/05/02 06:13:27;;;;;;;36.60;32.90;;;9.30;99.90;;;;;;4956146;29;20462;-66
2021/05/02 06:15:53;;;;;;;38.83;34.90;;;9.40;99.90;;;;;;4956291;29;20498;-66
2021/05/02 06:18:19;;;;;;;38.33;34.50;;;9.50;99.90;;;;;;4956143;29;20462;-66
2021/05/02 06:20:46;;;;;;;37.80;34.20;;;9.50;99.90;;;;;;4956265;29;20462;-67
2021/05/02 06:23:12;;;;;;;34.67;31.30;;;9.80;99.90;;;;;;4956010;29;20514;-66
2021/05/02 06:25:38;;;;;;;37.63;34.07;;;10.00;99.90;;;;;;4955961;29;20503;-65
2021/05/02 06:28:04;;;;;;;32.40;29.33;;;10.30;99.90;;;;;;4956064;29;20459;-66
2021/05/02 06:30:32;;;;;;;32.80;29.60;;;10.50;99.90;;;;;;4956381;29;20444;-66
2021/05/02 06:33:00;;;;;;;34.87;31.77;;;10.60;99.90;;;;;;4955683;29;20875;-66
2021/05/02 06:35:26;;;;;;;33.47;30.40;;;10.60;99.90;;;;;;4955913;29;20486;-64
2021/05/02 06:37:53;;;;;;;33.10;30.00;;;10.70;99.90;;;;;;4956021;29;20463;-65
2021/05/02 06:40:19;;;;;;;32.20;27.73;;;10.70;99.90;;;;;;4955927;29;20456;-66
2021/05/02 06:42:45;;;;;;;29.67;27.00;;;10.50;99.90;;;;;;4956432;29;20514;-64
2021/05/02 06:45:13;;;;;;;27.93;25.40;;;10.40;99.90;;;;;;4958800;29;20511;-65
2021/05/02 06:47:40;;;;;;;28.37;25.77;;;10.40;99.90;;;;;;4955691;29;20455;-64
2021/05/02 06:50:07;;;;;;;31.27;24.67;;;10.60;99.90;;;;;;4956121;29;20462;-66
2021/05/02 06:52:33;;;;;;;28.30;25.63;;;10.90;99.90;;;;;;4956051;29;20455;-65
2021/05/02 06:54:59;;;;;;;28.57;26.07;;;11.20;99.90;;;;;;4955917;28;20479;-67
2021/05/02 06:57:25;;;;;;;25.73;23.33;;;11.50;99.90;;;;;;4958757;29;20452;-66
2021/05/02 06:59:52;;;;;;;23.37;21.13;;;11.70;99.90;;;;;;4960036;29;20455;-67
2021/05/02 07:02:18;;;;;;;27.63;25.07;;;11.80;99.90;;;;;;4959617;29;20920;-66
2021/05/02 07:04:45;;;;;;;28.00;25.70;;;11.90;99.90;;;;;;4959660;29;20456;-66
2021/05/02 07:07:11;;;;;;;23.53;21.57;;;12.00;99.90;;;;;;4960261;29;20460;-66
2021/05/02 07:09:37;;;;;;;23.67;21.57;;;12.20;99.90;;;;;;4959768;29;20483;-67
2021/05/02 07:12:04;;;;;;;24.77;22.47;;;12.20;99.90;;;;;;4960105;29;20440;-67
2021/05/02 07:14:30;;;;;;;25.93;23.50;;;12.20;99.90;;;;;;4959693;29;20446;-66
2021/05/02 07:16:57;;;;;;;22.00;19.97;;;12.20;99.90;;;;;;4959703;29;20455;-66
2021/05/02 07:19:24;;;;;;;22.50;20.23;;;12.40;99.90;;;;;;4959283;29;20456;-65
2021/05/02 07:21:57;;;;;;;21.67;19.73;;;12.40;99.90;;;;;;4959693;29;20459;-65
2021/05/02 07:24:24;;;;;;;20.47;18.47;;;12.80;99.90;;;;;;4959443;29;20826;-66
2021/05/02 07:26:50;;;;;;;19.87;18.27;;;13.30;99.90;;;;;;4959948;29;20483;-65
2021/05/02 07:29:16;;;;;;;19.50;17.10;;;13.60;99.90;;;;;;4958995;29;20905;-65
2021/05/02 07:31:42;;;;;;;17.17;15.73;;;13.90;99.90;;;;;;4959327;29;20465;-65
2021/05/02 07:34:08;;;;;;;18.17;16.77;;;14.20;99.90;;;;;;4959617;29;20444;-65
2021/05/02 07:36:35;;;;;;;16.77;15.47;;;14.60;99.90;;;;;;4959459;29;20471;-66
2021/05/02 07:39:04;;;;;;;19.60;17.80;;;14.90;99.90;;;;;;4959540;29;20463;-64
2021/05/02 07:41:30;;;;;;;19.53;17.93;;;14.80;99.90;;;;;;4959079;29;20970;-64
2021/05/02 07:43:57;;;;;;;18.17;16.57;;;14.90;99.90;;;;;;4959560;29;20455;-66
2021/05/02 07:46:23;;;;;;;17.20;15.70;;;15.00;99.90;;;;;;4959506;29;20580;-65
2021/05/02 07:48:49;;;;;;;18.70;16.23;;;15.10;99.90;;;;;;4959367;29;20460;-65
2021/05/02 07:51:15;;;;;;;20.97;19.07;;;15.00;99.90;;;;;;4959492;29;20466;-65
2021/05/02 07:53:42;;;;;;;19.53;17.90;;;15.00;99.90;;;;;;4960730;29;20455;-64
2021/05/02 07:56:09;;;;;;;18.23;16.77;;;15.50;99.90;;;;;;4959602;29;20475;-65
2021/05/02 07:58:35;;;;;;;18.07;16.67;;;15.20;99.90;;;;;;4959512;29;20467;-65
2021/05/02 08:01:01;;;;;;;18.67;17.07;;;15.10;99.90;;;;;;4958870;29;20978;-65
2021/05/02 08:03:28;;;;;;;18.27;16.77;;;15.60;99.90;;;;;;4958934;29;20455;-65
2021/05/02 08:05:54;;;;;;;18.20;16.40;;;16.40;99.90;;;;;;4958279;29;20993;-66
2021/05/02 08:08:20;;;;;;;18.60;16.97;;;16.80;99.90;;;;;;4958283;28;20463;-65
2021/05/02 08:10:46;;;;;;;15.90;14.60;;;17.00;99.90;;;;;;4958623;29;20478;-65
2021/05/02 08:13:17;;;;;;;17.67;16.30;;;17.00;99.90;;;;;;4958724;29;20460;-65
2021/05/02 08:15:44;;;;;;;18.10;16.53;;;16.80;99.90;;;;;;4962293;29;20507;-65
2021/05/02 08:18:10;;;;;;;16.80;15.30;;;16.50;99.90;;;;;;4958501;29;21013;-65
2021/05/02 08:20:36;;;;;;;18.80;17.10;;;16.30;99.90;;;;;;4958878;29;20463;-65
2021/05/02 08:23:03;;;;;;;18.97;17.47;;;16.00;99.90;;;;;;4958493;29;20455;-65
2021/05/02 08:25:29;;;;;;;19.03;17.43;;;15.80;99.90;;;;;;4958880;29;20472;-65
2021/05/02 08:27:55;;;;;;;18.87;17.10;;;15.90;99.90;;;;;;4957955;29;20958;-65
2021/05/02 08:30:22;;;;;;;17.20;15.83;;;16.20;99.90;;;;;;4959529;29;20455;-64
2021/05/02 08:32:48;;;;;;;18.87;17.37;;;15.80;99.90;;;;;;4966021;29;20462;-65
2021/05/02 08:35:15;;;;;;;18.13;16.63;;;16.00;99.90;;;;;;4963740;29;20480;-64
2021/05/02 08:37:41;;;;;;;19.93;18.17;;;16.10;99.90;;;;;;4963170;29;20511;-64
2021/05/02 08:40:09;;;;;;;19.20;17.70;;;16.10;99.90;;;;;;4960447;29;20507;-64
2021/05/02 08:42:36;;;;;;;19.07;17.57;;;15.90;99.90;;;;;;4958286;29;20459;-65
2021/05/02 08:45:03;;;;;;;19.47;17.77;;;15.90;99.90;;;;;;4958306;29;20487;-65
2021/05/02 08:47:35;;;;;;;18.53;16.93;;;15.60;99.90;;;;;;4958464;29;20534;-64
2021/05/02 08:50:01;;;;;;;17.23;15.80;;;15.00;99.90;;;;;;4959756;29;20838;-66
2021/05/02 08:52:27;;;;;;;19.73;17.93;;;14.90;99.90;;;;;;4959331;29;20463;-68
2021/05/02 08:54:54;;;;;;;19.37;17.43;;;14.80;99.90;;;;;;4958780;29;20486;-67
2021/05/02 08:57:20;;;;;;;17.83;16.27;;;14.90;99.90;;;;;;4958124;29;21009;-66
2021/05/02 08:59:46;;;;;;;18.30;16.67;;;15.60;99.90;;;;;;4958402;29;20455;-68
2021/05/02 09:02:22;;;;;;;18.33;16.83;;;15.80;99.90;;;;;;4957923;29;20458;-68
2021/05/02 09:04:54;;;;;;;18.70;17.20;;;16.40;99.90;;;;;;4957525;29;20542;-67
2021/05/02 09:07:20;;;;;;;18.57;17.17;;;16.60;99.90;;;;;;4957651;29;20819;-67
2021/05/02 09:09:49;;;;;;;16.40;15.10;;;16.90;99.90;;;;;;4957343;29;20456;-67
2021/05/02 09:12:20;;;;;;;17.00;15.50;;;17.40;99.00;;;;;;4957903;29;20463;-67
2021/05/02 09:14:47;;;;;;;17.60;16.37;;;17.40;98.60;;;;;;4957371;29;20454;-65
2021/05/02 09:17:16;;;;;;;19.00;17.40;;;17.30;98.10;;;;;;4957803;29;20463;-66
2021/05/02 09:19:47;;;;;;;18.83;17.27;;;17.00;97.60;;;;;;4957337;28;20461;-66
2021/05/02 09:22:15;;;;;;;18.93;17.43;;;17.20;98.20;;;;;;4958446;29;20796;-66
2021/05/02 09:24:42;;;;;;;19.00;17.50;;;17.60;98.10;;;;;;4958197;29;20459;-67
2021/05/02 09:27:11;;;;;;;17.37;15.77;;;18.30;95.50;;;;;;4957838;29;20852;-67
2021/05/02 09:29:38;;;;;;;18.43;17.03;;;18.70;96.90;;;;;;4958003;29;20864;-66
2021/05/02 09:32:07;;;;;;;20.63;18.97;;;18.40;93.60;;;;;;4957687;29;20774;-67
2021/05/02 09:34:34;;;;;;;19.97;18.20;;;18.30;93.20;;;;;;4957947;29;20455;-67
2021/05/02 09:37:02;;;;;;;19.30;17.47;;;17.80;92.80;;;;;;4958414;29;20451;-67
2021/05/02 09:39:38;;;;;;;18.83;17.00;;;17.30;95.70;;;;;;4958217;29;20447;-67
2021/05/02 09:42:06;;;;;;;19.23;17.43;;;17.50;94.40;;;;;;4957486;29;20498;-67
2021/05/02 09:44:47;;;;;;;18.43;16.90;;;17.60;94.80;;;;;;4959017;29;20448;-67
2021/05/02 09:47:30;;;;;;;20.33;18.57;;;17.20;93.40;;;;;;4959437;29;20818;-67
2021/05/02 09:50:10;;;;;;;22.43;20.43;;;16.90;95.20;;;;;;4957763;29;20443;-67
2021/05/02 09:52:44;;;;;;;20.10;18.50;;;17.00;95.20;;;;;;4957610;29;20451;-66
2021/05/02 09:55:39;;;;;;;25.10;18.43;;;17.40;94.10;;;;;;4957336;29;20476;-66
2021/05/02 09:58:08;;;;;;;19.17;17.63;;;18.40;94.40;;;;;;4934756;29;20813;-67
2021/05/02 10:00:37;;;;;;;19.90;18.27;;;19.10;91.80;;;;;;4957565;29;20447;-66
2021/05/02 10:03:07;;;;;;;20.63;19.03;;;19.50;91.30;;;;;;4957470;29;20458;-67
2021/05/02 10:05:34;;;;;;;21.90;19.63;;;19.40;90.80;;;;;;4957345;29;20514;-67
2021/05/02 10:08:01;;;;;;;22.17;20.43;;;19.90;85.20;;;;;;4957152;29;20497;-67
2021/05/02 10:10:28;;;;;;;20.57;18.87;;;19.60;80.90;;;;;;4957864;29;20466;-67
2021/05/02 10:12:55;;;;;;;22.13;20.43;;;19.60;83.50;;;;;;4957865;29;20452;-66
2021/05/02 10:15:23;;;;;;;21.53;19.93;;;18.70;78.70;;;;;;4956960;29;20487;-66
2021/05/02 10:17:50;;;;;;;24.13;21.70;;;18.00;85.40;;;;;;4957233;29;20457;-68
2021/05/02 10:20:18;;;;;;;22.63;20.77;;;17.60;89.50;;;;;;4957126;29;20455;-67
2021/05/02 10:22:45;;;;;;;20.80;19.20;;;17.60;91.30;;;;;;4956972;29;20459;-67
2021/05/02 10:25:13;;;;;;;21.20;19.60;;;17.80;87.40;;;;;;4957209;29;20480;-67
2021/05/02 10:27:46;;;;;;;21.67;19.97;;;18.30;85.90;;;;;;4956928;29;20479;-66
2021/05/02 10:30:20;;;;;;;21.80;20.20;;;18.70;85.60;;;;;;4956987;28;20456;-66
2021/05/02 10:32:50;;;;;;;21.30;19.77;;;18.80;81.70;;;;;;4956845;29;20443;-67
2021/05/02 10:35:17;;;;;;;21.10;19.17;;;18.80;80.40;;;;;;4956736;29;20511;-67
2021/05/02 10:37:53;;;;;;;20.77;19.27;;;19.00;77.90;;;;;;4956710;29;20819;-67
2021/05/02 10:40:31;;;;;;;21.37;19.67;;;18.70;77.40;;;;;;4956453;29;20443;-67
2021/05/02 10:43:01;;;;;;;19.87;18.40;;;18.10;78.80;;;;;;4956639;29;20498;-66
2021/05/02 10:45:43;;;;;;;20.83;18.80;;;17.10;78.80;;;;;;4957118;29;20566;-67
2021/05/02 10:48:25;;;;;;;20.73;18.77;;;16.70;82.90;;;;;;4956530;29;20493;-67
2021/05/02 10:50:53;;;;;;;21.03;19.33;;;17.20;85.60;;;;;;4955961;29;20456;-66
2021/05/02 10:53:21;;;;;;;21.80;20.20;;;17.50;82.80;;;;;;4957320;29;20446;-65
2021/05/02 10:55:53;;;;;;;21.07;19.37;;;17.40;87.30;;;;;;4956312;29;21012;-66
2021/05/02 10:58:21;;;;;;;20.77;19.17;;;17.30;85.10;;;;;;4956854;29;20444;-67
2021/05/02 11:00:50;;;;;;;19.00;17.53;;;17.70;84.70;;;;;;4957250;29;20798;-66
2021/05/02 11:03:51;;;;;;;18.37;16.97;;;18.40;90.20;;;;;;4956647;29;20487;-67
2021/05/02 11:06:53;;;;;;;18.30;16.87;;;19.20;82.30;;;;;;4956105;29;20484;-68
2021/05/02 11:09:30;;;;;;;18.57;16.87;;;19.70;79.70;;;;;;4956542;29;20530;-66
2021/05/02 11:11:58;;;;;;;16.87;15.57;;;19.80;77.20;;;;;;4956697;29;20534;-67
2021/05/02 11:14:32;;;;;;;17.17;15.77;;;19.00;73.10;;;;;;4956439;29;20483;-67
2021/05/02 11:17:24;;;;;;;14.60;13.50;;;18.80;84.00;;;;;;4958386;29;20510;-66
2021/05/02 11:19:53;;;;;;;15.90;14.77;;;18.60;76.80;;;;;;4951876;29;20455;-66
2021/05/02 11:22:21;;;;;;;16.10;14.90;;;18.40;74.00;;;;;;4956478;29;20463;-67
2021/05/02 11:24:55;;;;;;;17.60;15.03;;;17.80;74.50;;;;;;4956006;29;20460;-67
2021/05/02 11:30:37;;;;;;;17.80;16.30;;;17.20;74.40;;;;;;4956501;29;20436;-67
2021/05/02 11:33:20;;;;;;;18.70;17.20;;;16.80;81.80;;;;;;4956885;29;20456;-67
2021/05/02 11:35:54;;;;;;;18.20;16.70;;;16.10;87.70;;;;;;4956792;29;20856;-67
2021/05/02 11:38:34;;;;;;;20.33;18.63;;;15.60;92.80;;;;;;4956504;29;20471;-67
2021/05/02 11:41:03;;;;;;;17.47;16.23;;;15.20;98.10;;;;;;4956272;29;20436;-66
2021/05/02 11:43:30;;;;;;;18.07;16.67;;;15.30;99.90;;;;;;4960399;28;20458;-66
2021/05/02 11:45:58;;;;;;;19.27;17.87;;;15.40;99.90;;;;;;4964934;29;20482;-66
2021/05/02 11:48:30;;;;;;;16.20;14.70;;;15.10;99.90;;;;;;4965881;29;20961;-66
2021/05/02 11:50:59;;;;;;;13.10;12.10;;;15.30;99.40;;;;;;4964257;29;20440;-66
2021/05/02 11:53:37;;;;;;;13.43;12.47;;;15.40;95.30;;;;;;4963884;29;20948;-65
2021/05/02 11:56:10;;;;;;;9.07;8.50;;;15.20;98.40;;;;;;4965313;29;21001;-66
2021/05/02 11:58:37;;;;;;;9.47;8.87;;;15.10;95.90;;;;;;4960639;29;20476;-64
2021/05/02 12:01:04;;;;;;;11.80;10.93;;;14.90;98.10;;;;;;4960939;29;20462;-66
2021/05/02 12:03:37;;;;;;;10.60;9.90;;;14.60;97.80;;;;;;4962829;29;20965;-65
2021/05/02 12:06:05;;;;;;;10.13;9.43;;;14.80;96.70;;;;;;4966252;29;20510;-67
2021/05/02 12:08:32;;;;;;;10.50;9.60;;;14.90;95.70;;;;;;4965075;29;20463;-67
2021/05/02 12:11:00;;;;;;;9.60;8.80;;;15.10;95.60;;;;;;4963281;29;20969;-67
2021/05/02 12:13:35;;;;;;;10.07;9.37;;;14.90;95.40;;;;;;4962060;29;20804;-67
2021/05/02 12:16:07;;;;;;;11.03;10.23;;;14.80;95.30;;;;;;4960916;29;20479;-65
2021/05/02 12:18:49;;;;;;;11.30;10.50;;;14.90;93.80;;;;;;4960938;29;20550;-67
2021/05/02 12:21:20;;;;;;;12.87;11.87;;;15.00;95.40;;;;;;4960608;29;20472;-66
2021/05/02 12:23:47;;;;;;;16.23;14.77;;;14.90;94.40;;;;;;4961250;29;20539;-66
2021/05/02 12:26:15;;;;;;;12.43;11.53;;;14.60;96.20;;;;;;4960996;29;20513;-66
2021/05/02 12:28:42;;;;;;;15.93;14.40;;;14.80;97.10;;;;;;4961482;29;20808;-67
2021/05/02 12:31:11;;;;;;;13.93;12.80;;;15.00;94.10;;;;;;4962605;29;20455;-65
2021/05/02 12:33:39;;;;;;;15.10;13.90;;;14.90;94.30;;;;;;4960396;29;20455;-66
2021/05/02 12:36:08;;;;;;;15.80;14.60;;;15.10;95.20;;;;;;4957921;29;20491;-67
2021/05/02 12:38:35;;;;;;;16.50;15.10;;;15.20;94.30;;;;;;4958172;29;20455;-67
2021/05/02 12:41:02;;;;;;;17.87;16.47;;;15.20;91.90;;;;;;4957833;29;20463;-65
2021/05/02 12:43:30;;;;;;;18.70;17.20;;;15.20;95.40;;;;;;4958146;29;20455;-65